createdAt,value
2022-10-08T00:00:16.558Z,100938.94
2022-10-08T00:01:19.409Z,100932.67
2022-10-08T00:02:22.573Z,100926.45
2022-10-08T00:03:26.771Z,100934.45
2022-10-08T00:04:29.514Z,100933.60
2022-10-08T00:05:32.777Z,100927.34
2022-10-08T00:06:35.074Z,100931.79
2022-10-08T00:07:37.204Z,100924.67
2022-10-08T00:08:40.735Z,100921.11
2022-10-08T00:09:42.847Z,100926.45
2022-10-08T00:10:48.840Z,100913.99
2022-10-08T00:11:52.157Z,100918.45
2022-10-08T00:12:54.817Z,100922.86
2022-10-08T00:13:57.152Z,100922.00
2022-10-08T00:14:59.293Z,100921.11
2022-10-08T00:16:01.549Z,100924.67
2022-10-08T00:17:03.899Z,100922.00
2022-10-08T00:18:06.375Z,100921.11
2022-10-08T00:20:23.186Z,100915.31
2022-10-08T00:22:42.354Z,100917.98
2022-10-08T00:23:46.027Z,100919.33
2022-10-08T00:24:49.445Z,100918.45
2022-10-08T00:25:51.952Z,100914.92
2022-10-08T00:26:54.156Z,100909.58
2022-10-08T00:27:57.837Z,100912.18
2022-10-08T00:29:04.657Z,100905.98
2022-10-08T00:30:08.023Z,100908.66
2022-10-08T00:31:12.822Z,100899.77
2022-10-08T00:32:15.230Z,100906.03
2022-10-08T00:33:17.425Z,100905.98
2022-10-08T00:34:20.987Z,100898.91
2022-10-08T00:35:23.153Z,100897.98
2022-10-08T00:36:27.503Z,100904.17
2022-10-08T00:37:30.250Z,100899.69
2022-10-08T00:38:32.688Z,100899.77
2022-10-08T00:39:34.833Z,100902.43
2022-10-08T00:40:44.616Z,100893.57
2022-10-08T00:41:49.085Z,100896.23
2022-10-08T00:42:51.411Z,100890.91
2022-10-08T00:43:55.649Z,100900.65
2022-10-08T00:45:00.626Z,100893.57
2022-10-08T00:46:03.432Z,100889.16
2022-10-08T00:47:08.923Z,100885.56
2022-10-08T00:48:17.329Z,100891.75
2022-10-08T00:49:20.499Z,100885.56
2022-10-08T00:50:32.326Z,100882.89
2022-10-08T00:51:35.940Z,100890.91
2022-10-08T00:53:55.615Z,100887.80
2022-10-08T00:54:58.836Z,100883.82
2022-10-08T00:56:02.078Z,100878.48
2022-10-08T00:57:05.709Z,100881.22
2022-10-08T00:58:14.993Z,100875.81
2022-10-08T00:59:17.306Z,100873.22
2022-10-08T01:00:22.203Z,100875.88
2022-10-08T01:01:25.670Z,100882.08
2022-10-08T01:02:28.387Z,100872.36
2022-10-08T01:03:31.047Z,100876.73
2022-10-08T01:04:33.534Z,100875.81
2022-10-08T01:05:42.093Z,100874.96
2022-10-08T01:08:27.678Z,100869.12
2022-10-08T01:09:45.753Z,100868.73
2022-10-08T01:10:54.867Z,100855.78
2022-10-08T01:12:09.690Z,100873.28
2022-10-08T01:13:35.350Z,100870.69
2022-10-08T01:14:54.790Z,100867.13
2022-10-08T01:16:03.824Z,100875.21
2022-10-08T01:17:10.833Z,100866.34
2022-10-08T01:19:55.538Z,100865.95
2022-10-08T01:21:09.143Z,100862.83
2022-10-08T01:22:31.668Z,100866.45
2022-10-08T01:23:54.995Z,100864.71
2022-10-08T01:25:00.103Z,100867.31
2022-10-08T01:26:21.634Z,100861.13
2022-10-08T01:27:41.778Z,100862.05
2022-10-08T01:28:47.258Z,100870.05
2022-10-08T01:29:49.607Z,100869.20
2022-10-08T01:31:01.412Z,100870.98
2022-10-08T01:32:15.975Z,100863.11
2022-10-08T01:33:24.454Z,100857.77
2022-10-08T01:35:52.738Z,100860.94
2022-10-08T01:36:56.431Z,100861.38
2022-10-08T01:38:00.587Z,100873.86
2022-10-08T01:39:05.170Z,100864.96
2022-10-08T01:40:11.635Z,100864.04
2022-10-08T01:41:13.935Z,100863.97
2022-10-08T01:42:16.619Z,100866.64
2022-10-08T01:43:20.741Z,100868.45
2022-10-08T01:46:01.128Z,100861.69
2022-10-08T01:47:04.830Z,100865.64
2022-10-08T01:48:10.375Z,100865.64
2022-10-08T01:49:15.440Z,100863.86
2022-10-08T01:51:35.396Z,100867.87
2022-10-08T01:52:56.044Z,100872.72
2022-10-08T01:53:59.514Z,100872.72
2022-10-08T01:55:03.360Z,100863.86
2022-10-08T01:56:08.351Z,100869.98
2022-10-08T01:57:11.947Z,100866.45
2022-10-08T01:58:16.123Z,100870.84
2022-10-08T01:59:40.995Z,100874.39
2022-10-08T02:00:43.315Z,100857.49
2022-10-08T02:03:13.296Z,100868.63
2022-10-08T02:04:16.766Z,100868.16
2022-10-08T02:05:18.945Z,100868.16
2022-10-08T02:06:21.185Z,100864.61
2022-10-08T02:07:26.248Z,100866.39
2022-10-08T02:08:29.321Z,100872.61
2022-10-08T02:09:33.594Z,100870.83
2022-10-08T02:10:36.053Z,100868.16
2022-10-08T02:11:38.178Z,100872.55
2022-10-08T02:12:41.164Z,100871.69
2022-10-08T02:13:43.451Z,100877.87
2022-10-08T02:14:47.979Z,100868.09
2022-10-08T02:15:53.953Z,100867.13
2022-10-08T02:17:09.239Z,100872.47
2022-10-08T02:18:17.812Z,100869.80
2022-10-08T02:19:40.177Z,100876.88
2022-10-08T02:22:00.318Z,100866.73
2022-10-08T02:23:15.814Z,100872.55
2022-10-08T02:24:22.355Z,100868.16
2022-10-08T02:26:54.108Z,100867.73
2022-10-08T02:29:23.902Z,100868.66
2022-10-08T02:30:27.660Z,100865.56
2022-10-08T02:31:36.576Z,100869.12
2022-10-08T02:32:59.646Z,100865.56
2022-10-08T02:35:50.633Z,100872.22
2022-10-08T02:37:09.054Z,100865.50
2022-10-08T02:39:38.936Z,100867.81
2022-10-08T02:40:43.776Z,100867.37
2022-10-08T02:41:51.603Z,100872.72
2022-10-08T02:42:56.006Z,100879.87
2022-10-08T02:43:59.824Z,100870.13
2022-10-08T02:45:07.658Z,100871.86
2022-10-08T02:47:26.682Z,100867.87
2022-10-08T02:48:31.969Z,100867.45
2022-10-08T02:49:39.513Z,100864.78
2022-10-08T02:50:41.781Z,100864.71
2022-10-08T02:52:58.486Z,100866.95
2022-10-08T02:54:03.737Z,100863.79
2022-10-08T02:55:15.654Z,100871.80
2022-10-08T02:56:25.003Z,100873.50
2022-10-08T02:57:36.304Z,100872.65
2022-10-08T02:58:38.505Z,100863.72
2022-10-08T02:59:40.900Z,100865.50
2022-10-08T03:01:05.061Z,100870.84
2022-10-08T03:02:08.375Z,100871.72
2022-10-08T03:03:14.622Z,100869.12
2022-10-08T03:05:32.146Z,100866.88
2022-10-08T03:06:36.112Z,100866.45
2022-10-08T03:07:39.560Z,100871.80
2022-10-08T03:08:43.774Z,100866.45
2022-10-08T03:09:46.485Z,100875.31
2022-10-08T03:10:49.782Z,100871.80
2022-10-08T03:11:53.749Z,100865.50
2022-10-08T03:13:00.680Z,100861.97
2022-10-08T03:14:04.255Z,100870.84
2022-10-08T03:15:09.316Z,100871.69
2022-10-08T03:16:13.102Z,100872.61
2022-10-08T03:17:22.539Z,100870.83
2022-10-08T03:18:24.677Z,100866.39
2022-10-08T03:19:27.030Z,100868.16
2022-10-08T03:20:30.840Z,100862.83
2022-10-08T03:21:33.193Z,100863.72
2022-10-08T03:22:35.568Z,100861.05
2022-10-08T03:23:38.608Z,100860.16
2022-10-08T03:24:40.650Z,100863.68
2022-10-08T03:25:44.659Z,100861.02
2022-10-08T03:26:46.946Z,100866.34
2022-10-08T03:27:49.962Z,100861.02
2022-10-08T03:28:52.539Z,100862.83
2022-10-08T03:29:54.725Z,100867.20
2022-10-08T03:30:58.215Z,100862.75
2022-10-08T03:32:00.537Z,100865.42
2022-10-08T03:33:02.636Z,100863.61
2022-10-08T03:34:04.812Z,100863.61
2022-10-08T03:35:07.513Z,100861.80
2022-10-08T03:36:10.840Z,100859.12
2022-10-08T03:37:12.990Z,100859.94
2022-10-08T03:38:15.362Z,100862.61
2022-10-08T03:39:17.458Z,100864.35
2022-10-08T03:40:20.895Z,100867.87
2022-10-08T03:41:23.170Z,100862.54
2022-10-08T03:42:25.326Z,100863.47
2022-10-08T03:43:32.855Z,100859.02
2022-10-08T03:44:35.072Z,100859.94
2022-10-08T03:45:37.290Z,100865.20
2022-10-08T03:46:40.561Z,100870.48
2022-10-08T03:47:42.683Z,100864.35
2022-10-08T03:48:48.644Z,100863.47
2022-10-08T03:49:51.103Z,100864.35
2022-10-08T03:52:08.581Z,100872.82
2022-10-08T03:53:11.041Z,100864.46
2022-10-08T03:54:14.061Z,100863.54
2022-10-08T03:55:17.147Z,100867.06
2022-10-08T03:56:20.567Z,100875.06
2022-10-08T03:57:23.325Z,100870.62
2022-10-08T03:58:25.485Z,100865.20
2022-10-08T03:59:27.681Z,100861.69
2022-10-08T04:00:30.550Z,100866.06
2022-10-08T04:01:33.112Z,100864.28
2022-10-08T04:02:36.055Z,100871.40
2022-10-08T04:03:39.951Z,100859.88
2022-10-08T04:04:42.164Z,100859.94
2022-10-08T04:05:49.581Z,100860.80
2022-10-08T04:06:53.118Z,100855.53
2022-10-08T04:07:56.236Z,100858.20
2022-10-08T04:08:58.601Z,100860.02
2022-10-08T04:10:01.307Z,100856.46
2022-10-08T04:11:04.684Z,100860.02
2022-10-08T04:12:07.858Z,100861.80
2022-10-08T04:13:09.988Z,100863.61
2022-10-08T04:14:12.130Z,100865.42
2022-10-08T04:15:14.335Z,100859.20
2022-10-08T04:16:18.468Z,100859.20
2022-10-08T04:17:20.997Z,100856.46
2022-10-08T04:18:23.561Z,100852.94
2022-10-08T04:19:25.683Z,100858.27
2022-10-08T04:20:27.897Z,100860.87
2022-10-08T04:21:30.009Z,100858.20
2022-10-08T04:22:32.652Z,100868.88
2022-10-08T04:23:36.765Z,100857.34
2022-10-08T04:24:39.059Z,100862.69
2022-10-08T04:25:50.544Z,100865.28
2022-10-08T04:26:52.851Z,100865.28
2022-10-08T04:27:54.865Z,100867.06
2022-10-08T04:28:57.014Z,100867.95
2022-10-08T04:29:59.157Z,100870.62
2022-10-08T04:31:04.951Z,100867.95
2022-10-08T04:32:07.224Z,100862.61
2022-10-08T04:33:09.910Z,100859.94
2022-10-08T04:34:12.210Z,100856.39
2022-10-08T04:35:14.352Z,100860.87
2022-10-08T04:37:32.668Z,100864.00
2022-10-08T04:38:35.831Z,100854.67
2022-10-08T04:39:38.740Z,100859.12
2022-10-08T04:40:41.017Z,100859.12
2022-10-08T04:41:43.776Z,100859.12
2022-10-08T04:42:51.978Z,100859.12
2022-10-08T04:43:56.661Z,100860.87
2022-10-08T04:45:01.082Z,100857.34
2022-10-08T04:46:03.995Z,100857.42
2022-10-08T04:47:06.372Z,100853.79
2022-10-08T04:48:08.514Z,100857.34
2022-10-08T04:49:10.886Z,100856.46
2022-10-08T04:50:15.511Z,100866.20
2022-10-08T04:51:20.254Z,100862.69
2022-10-08T04:52:22.541Z,100864.46
2022-10-08T04:53:26.544Z,100861.80
2022-10-08T04:54:29.720Z,100864.46
2022-10-08T04:55:32.486Z,100858.27
2022-10-08T04:56:35.771Z,100862.75
2022-10-08T04:57:37.960Z,100866.28
2022-10-08T04:58:41.433Z,100865.42
2022-10-08T04:59:59.680Z,100868.09
2022-10-08T05:00:48.895Z,100870.76
2022-10-08T05:01:53.568Z,100870.76
2022-10-08T05:02:55.970Z,100864.46
2022-10-08T05:03:59.545Z,100864.46
2022-10-08T05:05:02.726Z,100868.88
2022-10-08T05:06:05.760Z,100868.88
2022-10-08T05:07:08.373Z,100866.20
2022-10-08T05:08:11.077Z,100848.95
2022-10-08T05:09:13.367Z,100866.20
2022-10-08T05:10:16.734Z,100861.72
2022-10-08T05:11:20.039Z,100868.88
2022-10-08T05:12:22.648Z,100856.46
2022-10-08T05:13:25.881Z,100860.02
2022-10-08T05:14:28.161Z,100859.05
2022-10-08T05:15:30.453Z,100855.53
2022-10-08T05:16:32.840Z,100861.72
2022-10-08T05:17:35.471Z,100860.87
2022-10-08T05:18:39.013Z,100859.05
2022-10-08T05:19:41.331Z,100866.20
2022-10-08T05:20:43.695Z,100865.28
2022-10-08T05:21:45.994Z,100853.72
2022-10-08T05:22:48.729Z,100859.05
2022-10-08T05:24:00.193Z,100859.05
2022-10-08T05:25:03.308Z,100854.67
2022-10-08T05:26:19.822Z,100863.47
2022-10-08T05:27:22.038Z,100858.20
2022-10-08T05:28:24.217Z,100863.54
2022-10-08T05:29:27.092Z,100856.46
2022-10-08T05:30:29.265Z,100858.20
2022-10-08T05:31:34.975Z,100856.46
2022-10-08T05:32:38.283Z,100860.02
2022-10-08T05:33:40.464Z,100859.12
2022-10-08T05:34:43.208Z,100864.46
2022-10-08T05:35:45.381Z,100860.87
2022-10-08T05:36:47.683Z,100867.06
2022-10-08T05:37:51.731Z,100863.54
2022-10-08T05:38:55.349Z,100859.12
2022-10-08T05:39:58.445Z,100860.87
2022-10-08T05:41:12.321Z,100859.12
2022-10-08T05:42:14.603Z,100861.72
2022-10-08T05:43:17.220Z,100860.02
2022-10-08T05:44:19.626Z,100860.94
2022-10-08T05:45:22.470Z,100858.27
2022-10-08T05:46:26.197Z,100860.94
2022-10-08T05:47:29.073Z,100855.61
2022-10-08T05:48:31.131Z,100860.08
2022-10-08T05:49:33.511Z,100855.67
2022-10-08T05:50:36.638Z,100855.61
2022-10-08T05:51:38.975Z,100853.86
2022-10-08T05:52:41.192Z,100862.75
2022-10-08T05:53:45.133Z,100860.94
2022-10-08T05:54:47.335Z,100860.94
2022-10-08T05:55:54.679Z,100857.42
2022-10-08T05:56:58.190Z,100860.94
2022-10-08T05:58:00.492Z,100856.46
2022-10-08T05:59:02.614Z,100858.27
2022-10-08T06:00:05.913Z,100861.80
2022-10-08T06:02:30.253Z,100862.22
2022-10-08T06:03:33.099Z,100866.20
2022-10-08T06:04:36.586Z,100866.28
2022-10-08T06:05:38.811Z,100864.46
2022-10-08T06:06:41.720Z,100863.54
2022-10-08T06:07:44.015Z,100861.72
2022-10-08T06:08:46.189Z,100866.14
2022-10-08T06:09:49.357Z,100860.80
2022-10-08T06:10:52.150Z,100864.35
2022-10-08T06:11:54.251Z,100853.00
2022-10-08T06:12:56.415Z,100853.00
2022-10-08T06:13:59.264Z,100858.06
2022-10-08T06:15:02.623Z,100862.47
2022-10-08T06:16:09.939Z,100852.72
2022-10-08T06:17:12.296Z,100856.34
2022-10-08T06:18:14.740Z,100860.73
2022-10-08T06:19:16.867Z,100854.53
2022-10-08T06:20:20.376Z,100859.88
2022-10-08T06:21:24.535Z,100851.87
2022-10-08T06:22:28.246Z,100856.34
2022-10-08T06:23:31.618Z,100858.06
2022-10-08T06:24:34.589Z,100859.02
2022-10-08T06:25:37.463Z,100858.88
2022-10-08T06:26:41.402Z,100856.20
2022-10-08T06:27:43.885Z,100856.20
2022-10-08T06:28:46.115Z,100856.20
2022-10-08T06:29:48.588Z,100848.20
2022-10-08T06:30:50.934Z,100856.20
2022-10-08T06:31:53.478Z,100849.94
2022-10-08T06:32:56.240Z,100850.87
2022-10-08T06:33:58.468Z,100848.20
2022-10-08T06:35:00.633Z,100850.87
2022-10-08T06:36:07.637Z,100853.53
2022-10-08T06:37:09.823Z,100848.20
2022-10-08T06:38:12.295Z,100854.47
2022-10-08T06:39:15.361Z,100852.65
2022-10-08T06:40:18.870Z,100854.47
2022-10-08T06:41:21.421Z,100853.53
2022-10-08T06:42:24.308Z,100851.80
2022-10-08T06:43:26.745Z,100850.87
2022-10-08T06:44:29.644Z,100853.53
2022-10-08T06:45:31.949Z,100849.98
2022-10-08T06:46:36.008Z,100850.87
2022-10-08T06:47:39.066Z,100851.72
2022-10-08T06:48:41.675Z,100846.38
2022-10-08T06:49:45.924Z,100850.87
2022-10-08T06:50:48.330Z,100849.98
2022-10-08T06:51:50.588Z,100853.53
2022-10-08T06:52:52.792Z,100849.98
2022-10-08T06:53:58.710Z,100854.39
2022-10-08T06:55:01.355Z,100846.38
2022-10-08T06:57:19.179Z,100844.98
2022-10-08T06:58:22.489Z,100845.45
2022-10-08T06:59:26.874Z,100840.97
2022-10-08T07:00:29.973Z,100847.27
2022-10-08T07:01:34.168Z,100848.13
2022-10-08T07:02:36.544Z,100846.31
2022-10-08T07:03:38.804Z,100839.27
2022-10-08T07:04:40.980Z,100842.79
2022-10-08T07:05:43.234Z,100851.65
2022-10-08T07:06:45.738Z,100844.60
2022-10-08T07:07:47.854Z,100845.45
2022-10-08T07:08:54.499Z,100840.97
2022-10-08T07:09:56.666Z,100840.97
2022-10-08T07:11:06.235Z,100840.13
2022-10-08T07:12:08.398Z,100844.53
2022-10-08T07:13:10.993Z,100842.72
2022-10-08T07:14:13.313Z,100841.86
2022-10-08T07:15:15.828Z,100835.64
2022-10-08T07:16:21.120Z,100838.30
2022-10-08T07:17:23.487Z,100838.30
2022-10-08T07:18:26.796Z,100830.30
2022-10-08T07:19:29.076Z,100835.64
2022-10-08T07:20:32.859Z,100828.52
2022-10-08T07:21:35.902Z,100831.19
2022-10-08T07:22:38.057Z,100829.38
2022-10-08T07:23:40.419Z,100829.38
2022-10-08T07:24:42.654Z,100824.03
2022-10-08T07:25:57.125Z,100828.45
2022-10-08T07:26:59.846Z,100823.11
2022-10-08T07:28:03.768Z,100820.36
2022-10-08T07:29:08.952Z,100817.70
2022-10-08T07:30:12.234Z,100817.70
2022-10-08T07:31:17.487Z,100812.43
2022-10-08T07:32:19.882Z,100814.22
2022-10-08T07:33:23.416Z,100816.88
2022-10-08T07:34:26.508Z,100808.88
2022-10-08T07:35:29.675Z,100809.77
2022-10-08T07:36:32.453Z,100816.88
2022-10-08T07:37:34.608Z,100813.28
2022-10-08T07:38:37.149Z,100818.62
2022-10-08T07:39:39.245Z,100809.77
2022-10-08T07:40:42.412Z,100812.43
2022-10-08T07:41:44.962Z,100811.50
2022-10-08T07:42:47.575Z,100805.28
2022-10-08T07:43:54.890Z,100807.95
2022-10-08T07:44:57.385Z,100814.17
2022-10-08T07:45:59.413Z,100807.02
2022-10-08T07:47:03.197Z,100812.43
2022-10-08T07:48:05.568Z,100813.28
2022-10-08T07:49:08.792Z,100812.43
2022-10-08T07:50:11.108Z,100813.28
2022-10-08T07:51:17.209Z,100815.10
2022-10-08T07:52:21.023Z,100817.77
2022-10-08T07:53:23.201Z,100807.95
2022-10-08T07:54:25.432Z,100811.50
2022-10-08T07:55:27.548Z,100807.09
2022-10-08T07:56:30.832Z,100808.84
2022-10-08T07:57:33.109Z,100804.42
2022-10-08T07:58:35.444Z,100808.84
2022-10-08T07:59:37.623Z,100800.83
2022-10-08T08:00:40.208Z,100803.54
2022-10-08T08:01:42.625Z,100804.42
2022-10-08T08:02:50.408Z,100804.42
2022-10-08T08:03:55.129Z,100793.75
2022-10-08T08:04:57.949Z,100791.94
2022-10-08T08:06:01.639Z,100794.61
2022-10-08T08:07:04.457Z,100794.61
2022-10-08T08:08:06.458Z,100785.74
2022-10-08T08:09:08.949Z,100786.67
2022-10-08T08:10:11.710Z,100791.16
2022-10-08T08:11:15.459Z,100786.67
2022-10-08T08:12:17.683Z,100786.67
2022-10-08T08:13:20.111Z,100784.86
2022-10-08T08:14:23.344Z,100782.19
2022-10-08T08:15:26.128Z,100783.08
2022-10-08T08:16:28.565Z,100781.26
2022-10-08T08:17:30.782Z,100775.84
2022-10-08T08:18:34.087Z,100777.59
2022-10-08T08:19:36.295Z,100788.19
2022-10-08T08:20:38.421Z,100776.66
2022-10-08T08:21:40.920Z,100774.92
2022-10-08T08:22:43.153Z,100774.84
2022-10-08T08:23:46.826Z,100783.70
2022-10-08T08:24:49.016Z,100785.52
2022-10-08T08:25:51.170Z,100776.66
2022-10-08T08:26:57.730Z,100773.99
2022-10-08T08:27:59.764Z,100771.32
2022-10-08T08:29:05.057Z,100771.32
2022-10-08T08:30:09.378Z,100773.99
2022-10-08T08:31:16.007Z,100776.73
2022-10-08T08:32:19.628Z,100773.17
2022-10-08T08:33:21.891Z,100769.66
2022-10-08T08:34:24.328Z,100771.47
2022-10-08T08:35:26.638Z,100767.91
2022-10-08T08:36:32.417Z,100766.17
2022-10-08T08:37:35.619Z,100765.32
2022-10-08T08:38:39.034Z,100770.66
2022-10-08T08:39:41.414Z,100757.39
2022-10-08T08:40:43.915Z,100762.72
2022-10-08T08:42:22.014Z,100768.99
2022-10-08T08:43:24.626Z,100769.88
2022-10-08T08:44:32.685Z,100762.80
2022-10-08T08:45:46.514Z,100767.33
2022-10-08T08:46:42.289Z,100763.80
2022-10-08T08:49:03.957Z,100761.58
2022-10-08T08:50:16.541Z,100757.65
2022-10-08T08:51:18.920Z,100762.98
2022-10-08T08:52:23.730Z,100768.32
2022-10-08T08:53:26.987Z,100762.13
2022-10-08T08:54:30.391Z,100754.94
2022-10-08T08:55:34.973Z,100754.94
2022-10-08T08:56:37.401Z,100743.38
2022-10-08T08:58:04.337Z,100748.72
2022-10-08T08:59:20.403Z,100754.05
2022-10-08T09:00:30.496Z,100758.53
2022-10-08T09:02:54.632Z,100753.64
2022-10-08T09:04:00.509Z,100745.27
2022-10-08T09:06:20.353Z,100747.49
2022-10-08T09:07:24.416Z,100749.79
2022-10-08T09:08:34.501Z,100738.37
2022-10-08T09:09:41.146Z,100738.45
2022-10-08T09:10:56.033Z,100737.56
2022-10-08T09:11:58.265Z,100735.71
2022-10-08T09:13:01.035Z,100738.37
2022-10-08T09:14:11.934Z,100731.30
2022-10-08T09:15:22.775Z,100733.89
2022-10-08T09:16:28.177Z,100732.08
2022-10-08T09:17:32.261Z,100733.89
2022-10-08T09:18:34.489Z,100732.08
2022-10-08T09:19:36.856Z,100740.09
2022-10-08T09:20:40.429Z,100725.89
2022-10-08T09:21:43.466Z,100726.75
2022-10-08T09:22:47.312Z,100724.97
2022-10-08T09:23:49.783Z,100723.18
2022-10-08T09:24:57.276Z,100725.85
2022-10-08T09:26:09.366Z,100720.44
2022-10-08T09:27:13.767Z,100722.17
2022-10-08T09:28:39.768Z,100723.03
2022-10-08T09:29:42.136Z,100715.03
2022-10-08T09:30:45.208Z,100721.25
2022-10-08T09:31:49.996Z,100710.58
2022-10-08T09:32:52.917Z,100706.95
2022-10-08T09:34:14.485Z,100717.63
2022-10-08T09:35:17.580Z,100712.28
2022-10-08T09:36:32.542Z,100706.95
2022-10-08T09:37:34.801Z,100706.09
2022-10-08T09:38:36.929Z,100710.50
2022-10-08T09:39:40.207Z,100713.17
2022-10-08T09:40:42.554Z,100706.95
2022-10-08T09:41:45.290Z,100716.69
2022-10-08T09:43:06.585Z,100705.16
2022-10-08T09:44:17.605Z,100709.61
2022-10-08T09:46:45.303Z,100703.70
2022-10-08T09:47:51.281Z,100698.90
2022-10-08T09:48:56.358Z,100702.50
2022-10-08T09:50:07.255Z,100694.48
2022-10-08T09:51:14.480Z,100697.16
2022-10-08T09:52:25.908Z,100703.35
2022-10-08T09:54:51.932Z,100685.98
2022-10-08T09:56:01.147Z,100685.59
2022-10-08T09:57:03.244Z,100688.27
2022-10-08T09:58:05.400Z,100690.08
2022-10-08T09:59:09.895Z,100683.89
2022-10-08T10:01:35.660Z,100676.32
2022-10-08T10:02:38.734Z,100682.08
2022-10-08T10:05:12.374Z,100669.09
2022-10-08T10:06:20.988Z,100671.33
2022-10-08T10:07:20.785Z,100671.33
2022-10-08T10:08:46.659Z,100670.47
2022-10-08T10:09:53.914Z,100665.98
2022-10-08T10:10:56.354Z,100669.55
2022-10-08T10:12:32.597Z,100667.80
2022-10-08T10:13:37.727Z,100670.40
2022-10-08T10:14:50.814Z,100661.54
2022-10-08T10:17:32.916Z,100660.23
2022-10-08T10:19:06.090Z,100654.54
2022-10-08T10:20:21.778Z,100659.88
2022-10-08T10:21:47.827Z,100650.13
2022-10-08T10:22:58.978Z,100651.06
2022-10-08T10:24:10.545Z,100643.94
2022-10-08T10:26:42.823Z,100638.06
2022-10-08T10:28:11.223Z,100640.31
2022-10-08T10:29:16.837Z,100633.27
2022-10-08T10:31:45.177Z,100636.28
2022-10-08T10:32:58.491Z,100630.60
2022-10-08T10:34:13.990Z,100630.60
2022-10-08T10:36:34.783Z,100626.46
2022-10-08T10:37:41.877Z,100630.52
2022-10-08T10:38:57.280Z,100630.52
2022-10-08T10:41:40.956Z,100625.53
2022-10-08T10:42:51.749Z,100620.70
2022-10-08T10:45:17.843Z,100613.04
2022-10-08T10:47:48.670Z,100607.70
2022-10-08T10:48:52.513Z,100607.36
2022-10-08T10:49:56.070Z,100603.77
2022-10-08T10:51:11.745Z,100604.69
2022-10-08T10:54:03.110Z,100596.09
2022-10-08T10:55:24.481Z,100598.42
2022-10-08T10:56:30.267Z,100594.88
2022-10-08T10:57:36.214Z,100597.61
2022-10-08T10:59:57.586Z,100592.66
2022-10-08T11:02:58.155Z,100587.36
2022-10-08T11:04:04.230Z,100590.66
2022-10-08T11:05:19.099Z,100588.88
2022-10-08T11:06:33.975Z,100587.09
2022-10-08T11:07:59.164Z,100584.43
2022-10-08T11:09:11.288Z,100581.81
2022-10-08T11:10:29.311Z,100583.63
2022-10-08T11:12:53.814Z,100568.99
2022-10-08T11:14:15.106Z,100572.22
2022-10-08T11:15:24.142Z,100569.48
2022-10-08T11:18:11.833Z,100566.48
2022-10-08T11:19:35.970Z,100567.81
2022-10-08T11:21:13.998Z,100565.14
2022-10-08T11:22:27.165Z,100564.30
2022-10-08T11:23:36.404Z,100559.89
2022-10-08T11:24:57.694Z,100558.15
2022-10-08T11:27:30.429Z,100542.63
2022-10-08T11:28:57.662Z,100540.44
2022-10-08T11:30:07.077Z,100536.88
2022-10-08T11:31:19.466Z,100536.03
2022-10-08T11:32:21.881Z,100536.88
2022-10-08T11:33:24.853Z,100522.77
2022-10-08T11:35:50.962Z,100534.62
2022-10-08T11:37:04.807Z,100530.70
2022-10-08T11:38:13.647Z,100527.09
2022-10-08T11:39:23.018Z,100523.47
2022-10-08T11:40:32.087Z,100530.54
2022-10-08T11:41:47.890Z,100522.46
2022-10-08T11:43:12.158Z,100523.34
2022-10-08T11:44:17.313Z,100515.42
2022-10-08T11:45:26.235Z,100513.52
2022-10-08T11:46:33.265Z,100511.66
2022-10-08T11:47:43.378Z,100516.92
2022-10-08T11:48:45.902Z,100514.17
2022-10-08T11:49:53.813Z,100507.94
2022-10-08T11:51:20.332Z,100500.78
2022-10-08T11:52:22.618Z,100504.30
2022-10-08T11:53:24.763Z,100507.86
2022-10-08T11:54:31.727Z,100505.19
2022-10-08T11:55:34.562Z,100505.19
2022-10-08T11:56:44.323Z,100504.22
2022-10-08T11:58:07.659Z,100492.70
2022-10-08T11:59:03.400Z,100498.03
2022-10-08T12:01:55.122Z,100488.57
2022-10-08T12:03:00.108Z,100497.95
2022-10-08T12:04:19.107Z,100490.80
2022-10-08T12:05:25.083Z,100489.02
2022-10-08T12:06:28.824Z,100494.36
2022-10-08T12:08:53.944Z,100491.08
2022-10-08T12:10:09.949Z,100489.80
2022-10-08T12:11:32.942Z,100488.86
2022-10-08T12:12:54.256Z,100494.11
2022-10-08T12:14:16.293Z,100490.59
2022-10-08T12:15:30.040Z,100486.11
2022-10-08T12:16:57.587Z,100490.59
2022-10-08T12:18:01.545Z,100493.27
2022-10-08T12:19:05.308Z,100488.09
2022-10-08T12:20:22.921Z,100488.09
2022-10-08T12:21:29.805Z,100488.09
2022-10-08T12:22:35.899Z,100491.61
2022-10-08T12:23:38.683Z,100490.67
2022-10-08T12:24:49.750Z,100479.12
2022-10-08T12:26:02.299Z,100480.00
2022-10-08T12:27:23.794Z,100475.52
2022-10-08T12:28:35.888Z,100472.77
2022-10-08T12:30:00.947Z,100475.44
2022-10-08T12:31:28.463Z,100475.44
2022-10-08T12:34:04.446Z,100467.83
2022-10-08T12:35:25.940Z,100471.91
2022-10-08T12:36:41.074Z,100465.77
2022-10-08T12:37:50.615Z,100470.18
2022-10-08T12:39:09.250Z,100470.18
2022-10-08T12:41:39.567Z,100469.64
2022-10-08T12:42:42.158Z,100464.84
2022-10-08T12:43:59.983Z,100473.70
2022-10-08T12:45:16.831Z,100462.25
2022-10-08T12:48:11.460Z,100464.30
2022-10-08T12:49:41.769Z,100463.91
2022-10-08T12:51:03.156Z,100470.18
2022-10-08T12:52:14.082Z,100451.58
2022-10-08T12:53:16.451Z,100459.50
2022-10-08T12:54:23.220Z,100451.50
2022-10-08T12:55:25.475Z,100458.57
2022-10-08T12:56:28.628Z,100454.09
2022-10-08T12:57:38.406Z,100457.64
2022-10-08T12:58:42.980Z,100454.89
2022-10-08T12:59:45.423Z,100456.59
2022-10-08T13:00:54.433Z,100456.55
2022-10-08T13:01:56.856Z,100456.55
2022-10-08T13:03:04.491Z,100453.87
2022-10-08T13:05:32.482Z,100448.69
2022-10-08T13:06:34.773Z,100448.38
2022-10-08T13:07:36.887Z,100443.89
2022-10-08T13:08:42.236Z,100450.08
2022-10-08T13:09:45.037Z,100450.08
2022-10-08T13:10:47.435Z,100447.41
2022-10-08T13:11:54.844Z,100445.55
2022-10-08T13:13:04.269Z,100442.79
2022-10-08T13:14:10.174Z,100442.70
2022-10-08T13:16:29.499Z,100436.66
2022-10-08T13:17:33.597Z,100438.00
2022-10-08T13:18:38.119Z,100437.16
2022-10-08T13:19:41.402Z,100434.40
2022-10-08T13:20:58.231Z,100434.40
2022-10-08T13:22:04.598Z,100438.77
2022-10-08T13:24:42.135Z,100431.02
2022-10-08T13:25:45.851Z,100436.82
2022-10-08T13:28:11.202Z,100430.13
2022-10-08T13:29:28.769Z,100430.63
2022-10-08T13:30:31.652Z,100432.33
2022-10-08T13:31:33.888Z,100425.20
2022-10-08T13:32:37.280Z,100427.80
2022-10-08T13:33:41.221Z,100425.89
2022-10-08T13:34:57.116Z,100423.22
2022-10-08T13:36:00.935Z,100420.47
2022-10-08T13:37:05.662Z,100424.88
2022-10-08T13:38:08.677Z,100420.41
2022-10-08T13:39:28.105Z,100425.75
2022-10-08T13:40:51.036Z,100423.09
2022-10-08T13:43:08.259Z,100413.80
2022-10-08T13:44:10.603Z,100412.54
2022-10-08T13:45:20.639Z,100411.69
2022-10-08T13:46:23.767Z,100409.11